O'Kean, Arkansas
Current Conditions -  °F | °C
As of 10:35 AM on Friday 24 Oct 2014 (Local Time) from KARG Reporting Station
Overcast Overcast  
Wind Chill: 54°   Ceiling: 3600
Heat Index: 54°   Visibility: 10mi
Dew Point: 48°   Wind: 6mph
Humidity: 82%   Direction: 280°W
Pressure: 30.17"   Gusts: NA
Location:  36.17°N, 90.81°W
Report Text: KARG 241535Z AUTO 28005KT 10SM OVC036 12/09 A3017 RMK AO1
Loading
Personal Weather Stations






























Interactive Weather Map
Tropical Storm Tracking
New forecast layout! Learn more

10-Day Weather Forecast

Advertisements
Track Severe Weather on mobile